Terminal Aerodrome Forecast
Issued by NWS

Home | Current Version | Previous Version | Text Only | Print | Product List | Glossary On
Versions: 1 2 3 4 5 6 7 8 9 10 11 12 13 14 15 16 17 18 19 20 21 22 23 24 25
000
FTUS43 KDVN 242200 AAB
TAFCID
TAF AMD
KCID 242203Z 2422/2518 29015G25KT 3SM -SHSN BKN015 OVC020
      TEMPO 2422/2423 3/4SM -SN OVC015
     FM250300 30015KT P6SM VCSH BKN030
     FM250600 30012KT P6SM FEW015 SCT030=

USA.gov is the U.S. government's official web portal to all federal, state and local government web resources and services.